Mt Champion Express — A8QN4 — position and weather

sailwx.info

Track history (hours):
 
Tides and Currents Weather Stations Pressure Air Temp Water Temp Dewpoint Dewpoint Depression Visibility Wind Speed Wind Dir Waves Ship Positions

Mt Champion Express

Last reported at 2016-Jul-25 07:14 UTC. Time now 2016-Aug-29 07:14 UTC.
Position S 26°01' W 045°51'.
Warning: this ship's position is 35 days out of date.

Length 192 m; draft 7 m.

Type: Tanker. MMSI: 636013968.

Date/timePositionNaut miles runAvg speedWind from/ knotsBaromVisibWave heightAir tempDewpointWater temp
2016-Jul-25 07:14S 26°01' W 045°51'2111.3
2016-Jul-25 05:23S 25°57' W 046°14'1011.9
2016-Jul-25 04:32S 25°55' W 046°25'1212.0
2016-Jul-25 03:31S 25°53' W 046°38'1212.1
2016-Jul-25 02:33S 25°51' W 046°51'1211.9
2016-Jul-25 01:33S 25°50' W 047°04'1211.7
2016-Jul-25 00:33S 25°47' W 047°17'  
2016-Jul-15 16:32S 34°45' W 057°39'8 8.1
2016-Jul-15 15:31S 34°44' W 057°49'0 0.1
2016-Jul-15 13:23S 34°44' W 057°48'6 6.1
2016-Jul-15 12:28S 34°42' W 057°55'1010.9
2016-Jul-15 11:31S 34°38' W 058°07'  
Track history (hours):
 
Tides and Currents Weather Stations Pressure Air Temp Water Temp Dewpoint Dewpoint Depression Visibility Wind Speed Wind Dir Waves Ship Positions

Mt Champion Express

Last reported at 2016-Jul-25 07:14 UTC. Time now 2016-Aug-29 07:14 UTC.
Position S 26°01' W 045°51'.
Warning: this ship's position is 35 days out of date.

Length 192 m; draft 7 m.

Type: Tanker. MMSI: 636013968.

Date/timePositionNaut miles runAvg speedWind from/ knotsBaromVisibWave heightAir tempDewpointWater temp
2016-Jul-25 07:14S 26°01' W 045°51'2111.3
2016-Jul-25 05:23S 25°57' W 046°14'1011.9
2016-Jul-25 04:32S 25°55' W 046°25'1212.0
2016-Jul-25 03:31S 25°53' W 046°38'1212.1
2016-Jul-25 02:33S 25°51' W 046°51'1211.9
2016-Jul-25 01:33S 25°50' W 047°04'1211.7
2016-Jul-25 00:33S 25°47' W 047°17'  
2016-Jul-15 16:32S 34°45' W 057°39'8 8.1
2016-Jul-15 15:31S 34°44' W 057°49'0 0.1
2016-Jul-15 13:23S 34°44' W 057°48'6 6.1
2016-Jul-15 12:28S 34°42' W 057°55'1010.9
2016-Jul-15 11:31S 34°38' W 058°07'  

Dump ship's entire track history